GVA weather

Geneva Cointrin International Airport
Geneva, Canton of Geneva, Switzerland

Public forecast

Using degrees Celsius for public forecast. Weather courtesy of forecast.io.

Current aviation weather report (METAR) for Geneva Cointrin International Airport

Retrieved 2019/11/12 20:20 UTC (3 minutes ago):

LSGG 122020Z VRB01KT CAVOK 02/01 Q1004 NOSIG

Aviation forecast (TAF) for Geneva Cointrin International Airport

Retrieved 2019/11/12 21:39 UTC (0 seconds ago):

TAF LSGG 122025Z 1221/1403 VRB03KT 9999 FEW045 TX06/1314Z TN01/1306Z TEMPO 1301/1304 SHRA BKN040